Time;durP1;ratioP1;P1;durP2;ratioP2;P2;SDS_P1;SDS_P2;PMS_P1;PMS_P2;Temp;Humidity;BMP_temperature;BMP_pressure;BME280_temperature;BME280_humidity;BME280_pressure;Samples;Min_cycle;Max_cycle;Signal;HPM_P1;HPM_P2
2021/12/30 00:00:46;;;;;;;;;;;;;;;7.35;73.15;94578.56;5116232;28;1910;-46
2021/12/30 00:03:12;;;;;;;;;;;;;;;7.35;72.74;94583.88;5116429;28;1118;-45
2021/12/30 00:05:39;;;;;;;;;;;;;;;7.33;72.73;94585.88;5116075;28;1058;-45
2021/12/30 00:08:05;;;;;;;;;;;;;;;7.28;73.34;94593.47;5115937;28;948;-46
2021/12/30 00:10:35;;;;;;;;;;;;;;;7.33;72.93;94590.34;5115908;28;1034;-46
2021/12/30 00:13:02;;;;;;;;;;;;;;;7.28;72.55;94587.31;5116064;28;1153;-46
2021/12/30 00:15:29;;;;;;;;;;;;;;;7.18;73.21;94585.59;5115588;28;1978;-45
2021/12/30 00:17:55;;;;;;;;;;;;;;;7.20;73.03;94588.09;5116022;28;933;-46
2021/12/30 00:20:22;;;;;;;;;;;;;;;7.15;73.19;94587.72;5115569;28;1910;-45
2021/12/30 00:22:48;;;;;;;;;;;;;;;7.22;72.68;94594.91;5115805;28;981;-46
2021/12/30 00:25:15;;;;;;;;;;;;;;;7.28;72.46;94592.63;5115657;27;1087;-46
2021/12/30 00:27:41;;;;;;;;;;;;;;;7.24;72.31;94606.22;5115457;27;1855;-46
2021/12/30 00:30:09;;;;;;;;;;;;;;;7.20;72.06;94596.91;5115452;28;1102;-46
2021/12/30 00:32:35;;;;;;;;;;;;;;;7.17;72.30;94602.53;5115611;28;1043;-45
2021/12/30 00:35:02;;;;;;;;;;;;;;;7.17;71.73;94605.19;5115528;28;1054;-46
2021/12/30 00:37:29;;;;;;;;;;;;;;;7.11;72.28;94608.44;5114383;28;981;-46
2021/12/30 00:39:55;;;;;;;;;;;;;;;7.10;72.24;94617.44;5115279;28;1991;-45
2021/12/30 00:42:22;;;;;;;;;;;;;;;7.13;71.77;94613.63;5115277;28;988;-46
2021/12/30 00:44:48;;;;;;;;;;;;;;;7.17;72.29;94617.63;5115107;28;1065;-46
2021/12/30 00:47:14;;;;;;;;;;;;;;;7.15;72.18;94617.81;5115262;27;957;-46
2021/12/30 00:49:40;;;;;;;;;;;;;;;7.09;72.06;94626.38;5115779;28;1014;-46
2021/12/30 00:52:06;;;;;;;;;;;;;;;7.15;71.74;94636.44;5115133;28;976;-46
2021/12/30 00:54:32;;;;;;;;;;;;;;;7.17;71.61;94633.59;5115060;28;1086;-46
2021/12/30 00:56:59;;;;;;;;;;;;;;;7.18;71.64;94641.41;5114777;28;1114;-46
2021/12/30 00:59:26;;;;;;;;;;;;;;;7.19;71.64;94640.44;5114917;28;1906;-46
2021/12/30 01:01:52;;;;;;;;;;;;;;;7.15;71.69;94641.75;5114689;28;1082;-46
2021/12/30 01:04:20;;;;;;;;;;;;;;;7.15;71.94;94644.41;5115087;28;977;-45
2021/12/30 01:06:46;;;;;;;;;;;;;;;7.15;71.38;94641.75;5114713;28;976;-46
2021/12/30 01:09:13;;;;;;;;;;;;;;;7.06;72.29;94641.78;5115050;28;1315;-46
2021/12/30 01:11:39;;;;;;;;;;;;;;;6.91;72.28;94620.25;5114547;28;1161;-46
2021/12/30 01:14:29;;;;;;;;;;;;;;;7.01;72.32;94647.56;5114031;28;1072;-46
2021/12/30 01:16:57;;;;;;;;;;;;;;;6.99;72.14;94645.06;5114419;28;1561;-46
2021/12/30 01:19:42;;;;;;;;;;;;;;;7.03;71.61;94650.91;5114723;28;1990;-46
2021/12/30 01:22:13;;;;;;;;;;;;;;;6.99;71.47;94650.38;5114488;28;980;-46
2021/12/30 01:24:39;;;;;;;;;;;;;;;7.04;71.84;94649.94;5114696;28;976;-46
2021/12/30 01:27:05;;;;;;;;;;;;;;;7.00;71.50;94643.22;5114268;28;1020;-45
2021/12/30 01:29:31;;;;;;;;;;;;;;;6.97;71.40;94644.38;5114376;28;1216;-46
2021/12/30 01:31:58;;;;;;;;;;;;;;;6.90;71.31;94651.28;5114511;28;928;-46
2021/12/30 01:34:26;;;;;;;;;;;;;;;6.92;70.97;94648.47;5114494;28;982;-46
2021/12/30 01:36:53;;;;;;;;;;;;;;;6.90;70.55;94659.25;5114206;28;1083;-45
2021/12/30 01:39:20;;;;;;;;;;;;;;;6.86;70.80;94657.88;5114297;28;1913;-46
2021/12/30 01:41:46;;;;;;;;;;;;;;;6.89;70.99;94662.91;5114456;28;1013;-46
2021/12/30 01:44:12;;;;;;;;;;;;;;;6.88;70.54;94655.09;5113994;28;984;-46
2021/12/30 01:46:40;;;;;;;;;;;;;;;6.85;70.82;94656.25;5114180;28;1027;-45
2021/12/30 01:49:07;;;;;;;;;;;;;;;6.90;70.37;94653.13;5114027;28;1059;-46
2021/12/30 01:51:33;;;;;;;;;;;;;;;6.88;70.53;94657.75;5114119;28;986;-46
2021/12/30 01:53:59;;;;;;;;;;;;;;;6.84;70.74;94660.69;5114188;28;1052;-45
2021/12/30 01:56:25;;;;;;;;;;;;;;;6.82;70.81;94661.84;5113940;28;1055;-46
2021/12/30 01:58:53;;;;;;;;;;;;;;;6.80;70.99;94659.31;5113988;28;1992;-46
2021/12/30 02:01:19;;;;;;;;;;;;;;;6.73;71.66;94665.38;5114411;28;1022;-46
2021/12/30 02:03:45;;;;;;;;;;;;;;;6.79;71.28;94656.81;5113831;28;1063;-46
2021/12/30 02:06:12;;;;;;;;;;;;;;;6.73;70.94;94657.41;5113842;28;1008;-45
2021/12/30 02:08:38;;;;;;;;;;;;;;;6.68;71.07;94654.38;5113956;28;1046;-47
2021/12/30 02:11:04;;;;;;;;;;;;;;;6.63;71.32;94657.47;5113704;28;1153;-46
2021/12/30 02:13:30;;;;;;;;;;;;;;;6.62;71.03;94656.66;5113867;28;1313;-47
2021/12/30 02:16:02;;;;;;;;;;;;;;;6.62;71.31;94658.44;5113935;28;1002;-46
2021/12/30 02:18:31;;;;;;;;;;;;;;;6.60;71.22;94655.13;5113637;28;1205;-45
2021/12/30 02:20:59;;;;;;;;;;;;;;;6.60;71.23;94658.63;5113503;28;2001;-45
2021/12/30 02:23:29;;;;;;;;;;;;;;;6.54;70.83;94664.50;5112665;28;1036;-46
2021/12/30 02:25:57;;;;;;;;;;;;;;;6.58;70.99;94662.41;5114000;28;976;-45
2021/12/30 02:28:25;;;;;;;;;;;;;;;6.64;70.52;94667.13;5117591;28;988;-46
2021/12/30 02:30:52;;;;;;;;;;;;;;;6.68;70.92;94662.34;5117941;28;1039;-45
2021/12/30 02:33:18;;;;;;;;;;;;;;;6.65;70.91;94661.66;5117781;28;968;-46
2021/12/30 02:35:44;;;;;;;;;;;;;;;6.72;70.64;94671.72;5117913;28;1050;-45
2021/12/30 02:38:10;;;;;;;;;;;;;;;6.73;70.14;94663.56;5117908;28;1206;-45
2021/12/30 02:40:40;;;;;;;;;;;;;;;6.72;70.18;94672.53;5117943;28;1910;-46
2021/12/30 02:43:07;;;;;;;;;;;;;;;6.75;69.87;94668.72;5117434;28;1074;-45
2021/12/30 02:45:33;;;;;;;;;;;;;;;6.72;70.15;94669.06;5117727;28;996;-45
2021/12/30 02:47:59;;;;;;;;;;;;;;;6.72;70.19;94669.88;5117429;28;1057;-46
2021/12/30 02:50:26;;;;;;;;;;;;;;;6.70;70.28;94671.84;5117638;28;976;-45
2021/12/30 02:52:52;;;;;;;;;;;;;;;6.69;70.23;94662.19;5117693;28;1071;-46
2021/12/30 02:55:18;;;;;;;;;;;;;;;6.67;70.01;94660.69;5117558;28;1052;-45
2021/12/30 02:57:44;;;;;;;;;;;;;;;6.71;70.33;94678.00;5117455;27;996;-46
2021/12/30 03:00:10;;;;;;;;;;;;;;;6.81;69.79;94665.47;5117169;28;1914;-45
2021/12/30 03:02:37;;;;;;;;;;;;;;;6.80;69.97;94680.59;5117372;28;1079;-45
2021/12/30 03:05:05;;;;;;;;;;;;;;;6.78;70.06;94669.28;5116881;28;1016;-45
2021/12/30 03:07:31;;;;;;;;;;;;;;;6.82;69.68;94673.28;5117233;28;1074;-46
2021/12/30 03:09:57;;;;;;;;;;;;;;;6.74;69.91;94678.53;5117078;28;1052;-46
2021/12/30 03:12:23;;;;;;;;;;;;;;;6.72;70.15;94677.03;5117292;28;1153;-44
2021/12/30 03:14:49;;;;;;;;;;;;;;;6.79;69.58;94675.41;5117130;28;1311;-46
2021/12/30 03:17:15;;;;;;;;;;;;;;;6.80;69.29;94677.94;5117072;28;1000;-45
2021/12/30 03:19:41;;;;;;;;;;;;;;;6.82;68.80;94678.63;5116500;28;1996;-46
2021/12/30 03:22:07;;;;;;;;;;;;;;;6.84;69.03;94681.94;5116833;28;1288;-45
2021/12/30 03:24:35;;;;;;;;;;;;;;;6.86;69.07;94679.16;5116958;27;961;-45
2021/12/30 03:27:02;;;;;;;;;;;;;;;6.83;68.71;94687.44;5116972;28;1048;-46
2021/12/30 03:29:29;;;;;;;;;;;;;;;6.71;69.31;94692.09;5116922;28;1044;-44
2021/12/30 03:31:54;;;;;;;;;;;;;;;6.66;69.42;94699.69;5116616;28;1094;-46
2021/12/30 03:34:21;;;;;;;;;;;;;;;6.71;69.20;94702.72;5116331;28;1027;-46
2021/12/30 03:36:47;;;;;;;;;;;;;;;6.76;69.13;94697.81;5116820;28;993;-45
2021/12/30 03:39:14;;;;;;;;;;;;;;;6.79;68.43;94702.84;5115775;28;1917;-45
2021/12/30 03:41:40;;;;;;;;;;;;;;;6.81;68.73;94703.53;5116542;28;1015;-45
2021/12/30 03:44:06;;;;;;;;;;;;;;;6.80;68.56;94712.47;5116249;28;1202;-45
2021/12/30 03:46:33;;;;;;;;;;;;;;;6.80;68.86;94711.66;5116733;28;1054;-46
2021/12/30 03:49:00;;;;;;;;;;;;;;;6.84;68.34;94705.03;5116355;28;1212;-44
2021/12/30 03:51:26;;;;;;;;;;;;;;;6.79;69.06;94708.16;5116594;28;1051;-46
2021/12/30 03:53:56;;;;;;;;;;;;;;;6.73;69.03;94708.72;5116209;28;1019;-45
2021/12/30 03:56:27;;;;;;;;;;;;;;;6.71;69.62;94717.84;5116454;28;1062;-46
2021/12/30 03:58:53;;;;;;;;;;;;;;;6.74;68.99;94714.91;5116401;28;1917;-44
2021/12/30 04:01:21;;;;;;;;;;;;;;;6.70;69.47;94710.88;5116205;28;1179;-45
2021/12/30 04:03:48;;;;;;;;;;;;;;;6.73;69.10;94726.50;5115998;28;1028;-46
2021/12/30 04:06:14;;;;;;;;;;;;;;;6.68;69.13;94723.44;5116107;28;1032;-45
2021/12/30 04:08:41;;;;;;;;;;;;;;;6.70;69.22;94718.84;5116306;28;1070;-46
2021/12/30 04:11:07;;;;;;;;;;;;;;;6.66;69.70;94726.28;5115769;28;1125;-45
2021/12/30 04:13:35;;;;;;;;;;;;;;;6.74;69.55;94726.34;5115842;28;1131;-46
2021/12/30 04:16:01;;;;;;;;;;;;;;;6.74;68.98;94733.50;5115611;28;1078;-46
2021/12/30 04:18:27;;;;;;;;;;;;;;;6.76;69.02;94739.50;5115772;28;936;-46
2021/12/30 04:20:53;;;;;;;;;;;;;;;6.80;68.79;94739.03;5115756;28;1975;-44
2021/12/30 04:23:19;;;;;;;;;;;;;;;6.81;68.74;94746.03;5115918;28;1022;-46
2021/12/30 04:25:45;;;;;;;;;;;;;;;6.78;68.91;94743.66;5115488;28;1090;-44
2021/12/30 04:28:11;;;;;;;;;;;;;;;6.77;68.57;94743.81;5115908;28;1017;-46
2021/12/30 04:30:38;;;;;;;;;;;;;;;6.78;68.79;94748.97;5115289;28;1017;-45
2021/12/30 04:33:04;;;;;;;;;;;;;;;6.78;68.88;94746.31;5115414;27;1095;-46
2021/12/30 04:35:31;;;;;;;;;;;;;;;6.74;68.52;94750.28;5115533;28;1071;-46
2021/12/30 04:37:58;;;;;;;;;;;;;;;6.70;69.32;94754.22;5115351;28;1016;-46
2021/12/30 04:40:24;;;;;;;;;;;;;;;6.70;69.09;94746.25;5115416;28;1989;-45
2021/12/30 04:42:50;;;;;;;;;;;;;;;6.72;68.40;94748.75;5115518;28;1071;-44
2021/12/30 04:45:16;;;;;;;;;;;;;;;6.64;69.31;94757.47;5114967;28;1275;-45
2021/12/30 04:47:42;;;;;;;;;;;;;;;6.65;69.15;94764.44;5115125;28;1307;-45
2021/12/30 04:50:10;;;;;;;;;;;;;;;6.68;68.98;94766.81;5114011;28;1031;-44
2021/12/30 04:52:36;;;;;;;;;;;;;;;6.79;68.69;94769.28;5115395;28;1048;-44
2021/12/30 04:55:03;;;;;;;;;;;;;;;6.75;69.01;94765.22;5115199;28;988;-45
2021/12/30 04:57:29;;;;;;;;;;;;;;;6.65;69.29;94772.41;5115018;28;1075;-45
2021/12/30 04:59:55;;;;;;;;;;;;;;;6.71;69.18;94774.47;5115319;28;1982;-45
2021/12/30 05:02:25;;;;;;;;;;;;;;;6.77;68.43;94773.03;5114704;28;1071;-45
2021/12/30 05:04:51;;;;;;;;;;;;;;;6.75;68.52;94778.50;5115082;28;972;-46
2021/12/30 05:07:17;;;;;;;;;;;;;;;6.77;68.75;94779.22;5114859;28;1036;-46
2021/12/30 05:09:43;;;;;;;;;;;;;;;6.80;68.58;94792.19;5114998;28;1055;-45
2021/12/30 05:12:09;;;;;;;;;;;;;;;6.83;68.51;94791.06;5114820;28;1217;-46
2021/12/30 05:14:35;;;;;;;;;;;;;;;6.89;68.27;94794.97;5114479;28;1186;-46
2021/12/30 05:17:03;;;;;;;;;;;;;;;6.86;68.65;94808.53;5114721;28;983;-45
2021/12/30 05:19:30;;;;;;;;;;;;;;;6.83;68.25;94799.06;5114793;28;2030;-46
2021/12/30 05:21:56;;;;;;;;;;;;;;;6.85;68.39;94802.41;5114350;28;1007;-45
2021/12/30 05:24:22;;;;;;;;;;;;;;;6.83;68.44;94807.84;5114682;28;972;-46
2021/12/30 05:26:48;;;;;;;;;;;;;;;6.82;68.53;94811.47;5114328;28;1042;-46
2021/12/30 05:29:15;;;;;;;;;;;;;;;6.89;68.00;94813.56;5114441;28;977;-44
2021/12/30 05:31:41;;;;;;;;;;;;;;;6.90;68.12;94823.19;5114510;28;1070;-45
2021/12/30 05:34:07;;;;;;;;;;;;;;;6.90;68.42;94831.16;5114493;28;990;-45
2021/12/30 05:36:33;;;;;;;;;;;;;;;6.86;68.18;94821.81;5114142;28;1091;-46
2021/12/30 05:38:59;;;;;;;;;;;;;;;6.84;68.17;94824.63;5114251;28;1906;-45
2021/12/30 05:41:27;;;;;;;;;;;;;;;6.83;68.35;94818.47;5114391;28;1052;-46
2021/12/30 05:43:53;;;;;;;;;;;;;;;6.76;68.64;94825.34;5114001;28;1095;-46
2021/12/30 05:46:20;;;;;;;;;;;;;;;6.74;68.65;94826.50;5113994;28;1082;-46
2021/12/30 05:48:46;;;;;;;;;;;;;;;6.77;68.16;94824.38;5114168;28;996;-46
2021/12/30 05:51:12;;;;;;;;;;;;;;;6.72;68.31;94828.47;5114272;28;985;-46
2021/12/30 05:53:38;;;;;;;;;;;;;;;6.71;68.47;94832.91;5114143;28;988;-45
2021/12/30 05:56:04;;;;;;;;;;;;;;;6.74;68.12;94831.81;5114103;28;964;-45
2021/12/30 05:58:30;;;;;;;;;;;;;;;6.70;68.41;94836.56;5113969;28;1015;-46
2021/12/30 06:00:56;;;;;;;;;;;;;;;6.75;68.17;94841.44;5113845;28;2062;-46
2021/12/30 06:03:22;;;;;;;;;;;;;;;6.77;68.32;94845.66;5114066;28;931;-45
2021/12/30 06:05:49;;;;;;;;;;;;;;;6.75;68.48;94855.56;5114146;28;1000;-46
2021/12/30 06:08:15;;;;;;;;;;;;;;;6.73;68.34;94857.50;5113797;28;980;-46
2021/12/30 06:10:43;;;;;;;;;;;;;;;6.79;68.33;94864.06;5114141;28;977;-46
2021/12/30 06:13:10;;;;;;;;;;;;;;;6.79;68.34;94864.94;5113567;28;1156;-45
2021/12/30 06:15:36;;;;;;;;;;;;;;;6.78;68.88;94873.88;5113649;28;1360;-44
2021/12/30 06:18:02;;;;;;;;;;;;;;;6.73;69.06;94876.13;5113676;28;1058;-46
2021/12/30 06:20:30;;;;;;;;;;;;;;;6.79;69.19;94880.88;5114017;28;1993;-44
2021/12/30 06:22:56;;;;;;;;;;;;;;;6.74;69.51;94893.75;5113594;28;1036;-46
2021/12/30 06:25:23;;;;;;;;;;;;;;;6.70;68.83;94892.38;5113690;28;1252;-45
2021/12/30 06:27:49;;;;;;;;;;;;;;;6.59;69.90;94905.81;5113462;28;996;-45
2021/12/30 06:30:16;;;;;;;;;;;;;;;6.64;69.81;94901.75;5114067;28;1010;-45
2021/12/30 06:32:42;;;;;;;;;;;;;;;6.76;69.47;94910.38;5113710;28;1042;-45
2021/12/30 06:35:09;;;;;;;;;;;;;;;6.70;69.47;94912.78;5113883;28;1056;-45
2021/12/30 06:37:37;;;;;;;;;;;;;;;6.78;69.33;94928.84;5113563;28;965;-46
2021/12/30 06:40:05;;;;;;;;;;;;;;;6.84;69.23;94925.59;5113772;28;1923;-45
2021/12/30 06:42:31;;;;;;;;;;;;;;;6.89;69.05;94936.66;5113333;28;1622;-45
2021/12/30 06:44:58;;;;;;;;;;;;;;;6.96;68.88;94939.56;5113770;28;972;-46
2021/12/30 06:47:25;;;;;;;;;;;;;;;7.00;68.38;94935.63;5113472;28;1138;-47
2021/12/30 06:49:51;;;;;;;;;;;;;;;7.00;68.42;94936.47;5113413;28;1087;-45
2021/12/30 06:52:18;;;;;;;;;;;;;;;7.02;68.93;94941.66;5113408;28;965;-46
2021/12/30 06:54:44;;;;;;;;;;;;;;;6.93;69.10;94946.00;5113715;28;1059;-46
2021/12/30 06:57:11;;;;;;;;;;;;;;;6.93;69.15;94955.81;5113470;28;1976;-46
2021/12/30 06:59:37;;;;;;;;;;;;;;;6.93;69.42;94953.16;5113647;28;1991;-46
2021/12/30 07:02:04;;;;;;;;;;;;;;;6.98;69.18;94967.69;5113284;28;1047;-46
2021/12/30 07:04:30;;;;;;;;;;;;;;;7.03;68.83;94973.38;5113627;28;1063;-46
2021/12/30 07:06:57;;;;;;;;;;;;;;;7.05;69.34;94981.22;5113597;28;967;-45
2021/12/30 07:09:23;;;;;;;;;;;;;;;7.05;69.68;94986.53;5113138;28;1045;-45
2021/12/30 07:11:49;;;;;;;;;;;;;;;7.08;69.45;94980.94;5113403;28;1153;-46
2021/12/30 07:14:19;;;;;;;;;;;;;;;7.09;69.35;94981.78;5116174;28;1111;-44
2021/12/30 07:16:45;;;;;;;;;;;;;;;7.01;69.95;94987.81;5117215;27;999;-45
2021/12/30 07:19:12;;;;;;;;;;;;;;;6.97;69.16;94992.59;5116903;28;1910;-45
2021/12/30 07:21:39;;;;;;;;;;;;;;;7.02;69.36;94993.00;5117287;28;968;-45
2021/12/30 07:24:06;;;;;;;;;;;;;;;6.99;69.49;94998.59;5116677;28;972;-46
2021/12/30 07:26:32;;;;;;;;;;;;;;;6.97;69.64;94995.25;5117212;27;1055;-46
2021/12/30 07:28:59;;;;;;;;;;;;;;;6.98;69.49;95001.38;5116572;28;1012;-45
2021/12/30 07:31:26;;;;;;;;;;;;;;;7.02;69.52;95003.63;5116837;28;1020;-44
2021/12/30 07:33:52;;;;;;;;;;;;;;;7.18;69.02;95011.00;5116522;28;2093;-45
2021/12/30 07:36:18;;;;;;;;;;;;;;;7.30;68.48;95018.81;5116684;28;1035;-45
2021/12/30 07:38:44;;;;;;;;;;;;;;;7.24;68.76;95007.75;5116423;28;990;-45
2021/12/30 07:41:11;;;;;;;;;;;;;;;7.26;68.09;95018.25;5116814;28;1909;-45
2021/12/30 07:43:37;;;;;;;;;;;;;;;7.18;68.66;95013.66;5116594;28;1046;-46
2021/12/30 07:46:06;;;;;;;;;;;;;;;7.24;68.08;95023.72;5116632;28;1043;-45
2021/12/30 07:48:33;;;;;;;;;;;;;;;7.32;68.18;95030.16;5116392;28;1055;-45
2021/12/30 07:50:59;;;;;;;;;;;;;;;7.34;68.18;95034.34;5116442;28;972;-45
2021/12/30 07:53:25;;;;;;;;;;;;;;;7.24;68.28;95034.34;5116124;28;1010;-45
2021/12/30 07:55:51;;;;;;;;;;;;;;;7.29;68.21;95041.09;5116502;28;1058;-45
2021/12/30 07:58:18;;;;;;;;;;;;;;;7.37;68.53;95038.53;5116340;28;1044;-44
2021/12/30 08:00:44;;;;;;;;;;;;;;;7.31;68.55;95053.25;5116132;28;1913;-44
2021/12/30 08:03:11;;;;;;;;;;;;;;;7.33;68.01;95050.44;5116126;28;1026;-45
2021/12/30 08:05:37;;;;;;;;;;;;;;;7.34;68.61;95060.09;5149214;27;1252;-45
2021/12/30 08:08:04;;;;;;;;;;;;;;;7.33;68.03;95058.44;5115953;28;1000;-45
2021/12/30 08:10:31;;;;;;;;;;;;;;;7.25;68.90;95075.09;5116111;28;1321;-45
2021/12/30 08:12:57;;;;;;;;;;;;;;;7.21;68.18;95063.91;5115861;28;1160;-45
2021/12/30 08:15:24;;;;;;;;;;;;;;;7.20;68.74;95075.50;5115449;28;1162;-45
2021/12/30 08:17:51;;;;;;;;;;;;;;;7.18;68.54;95079.31;5115796;28;1872;-44
2021/12/30 08:20:18;;;;;;;;;;;;;;;7.26;69.28;95082.09;5115584;28;1992;-46
2021/12/30 08:22:45;;;;;;;;;;;;;;;7.18;69.12;95090.78;5115601;27;1023;-46
2021/12/30 08:25:12;;;;;;;;;;;;;;;7.21;69.29;95101.13;5115520;28;1016;-46
2021/12/30 08:27:39;;;;;;;;;;;;;;;7.24;68.94;95103.50;5115646;28;1079;-45
2021/12/30 08:30:07;;;;;;;;;;;;;;;7.29;68.19;95108.41;5115310;28;1852;-46
2021/12/30 08:32:33;;;;;;;;;;;;;;;7.31;67.81;95109.09;5115882;28;1075;-46
2021/12/30 08:35:00;;;;;;;;;;;;;;;7.32;68.09;95104.63;5115276;28;1001;-46
2021/12/30 08:37:26;;;;;;;;;;;;;;;7.40;68.10;95112.75;5115445;28;1036;-44
2021/12/30 08:39:53;;;;;;;;;;;;;;;7.33;68.43;95114.28;5115098;28;1945;-45
2021/12/30 08:42:26;;;;;;;;;;;;;;;7.33;69.06;95122.25;5115402;28;1019;-44
2021/12/30 08:44:53;;;;;;;;;;;;;;;7.38;68.70;95114.69;5115121;28;976;-46
2021/12/30 08:47:20;;;;;;;;;;;;;;;7.41;68.36;95115.22;5115341;28;999;-46
2021/12/30 08:49:46;;;;;;;;;;;;;;;7.46;68.55;95120.13;5115055;28;1059;-45
2021/12/30 08:52:14;;;;;;;;;;;;;;;7.39;68.08;95119.03;5115132;28;1097;-45
2021/12/30 08:54:40;;;;;;;;;;;;;;;7.40;68.29;95115.41;5115183;28;991;-46
2021/12/30 08:57:08;;;;;;;;;;;;;;;7.52;67.97;95111.59;5115332;28;1181;-46
2021/12/30 08:59:35;;;;;;;;;;;;;;;7.58;67.43;95123.47;5114840;28;1905;-45
2021/12/30 09:02:02;;;;;;;;;;;;;;;7.58;67.71;95128.78;5115026;28;1288;-44
2021/12/30 09:04:28;;;;;;;;;;;;;;;7.60;67.65;95126.81;5114665;28;1285;-45
2021/12/30 09:06:55;;;;;;;;;;;;;;;7.53;68.89;95139.88;5114784;28;1107;-46
2021/12/30 09:09:21;;;;;;;;;;;;;;;7.58;68.13;95145.59;5114653;28;1087;-46
2021/12/30 09:11:47;;;;;;;;;;;;;;;7.65;67.37;95137.88;5114860;28;1145;-46
2021/12/30 09:14:14;;;;;;;;;;;;;;;7.66;67.79;95133.41;5114735;28;1237;-46
2021/12/30 09:16:41;;;;;;;;;;;;;;;7.70;67.22;95132.97;5114555;28;1070;-46
2021/12/30 09:19:07;;;;;;;;;;;;;;;7.67;67.56;95132.44;5114520;28;1909;-46
2021/12/30 09:21:38;;;;;;;;;;;;;;;7.60;67.38;95125.00;5114702;28;1039;-44
2021/12/30 09:24:06;;;;;;;;;;;;;;;7.52;67.39;95132.03;5114668;28;1076;-45
2021/12/30 09:26:32;;;;;;;;;;;;;;;7.47;67.60;95132.44;5114716;28;992;-46
2021/12/30 09:28:59;;;;;;;;;;;;;;;7.45;67.72;95134.41;5114471;28;1189;-46
2021/12/30 09:31:25;;;;;;;;;;;;;;;7.41;68.08;95141.00;5114501;28;1021;-46
2021/12/30 09:33:51;;;;;;;;;;;;;;;7.35;67.82;95141.56;5114266;28;1079;-45
2021/12/30 09:36:17;;;;;;;;;;;;;;;7.18;68.03;95138.63;5113743;28;1950;-45
2021/12/30 09:38:43;;;;;;;;;;;;;;;7.17;67.96;95146.75;5114612;28;1019;-44
2021/12/30 09:41:09;;;;;;;;;;;;;;;7.16;68.26;95148.56;5114360;27;1985;-45
2021/12/30 09:43:35;;;;;;;;;;;;;;;7.22;67.96;95147.19;5114357;28;979;-45
2021/12/30 09:46:01;;;;;;;;;;;;;;;7.35;67.56;95139.75;5113922;28;1957;-47
2021/12/30 09:48:27;;;;;;;;;;;;;;;7.43;67.55;95157.66;5114137;28;987;-45
2021/12/30 09:50:54;;;;;;;;;;;;;;;7.46;67.43;95144.09;5114164;28;977;-45
2021/12/30 09:53:21;;;;;;;;;;;;;;;7.50;66.91;95144.66;5114317;28;976;-44
2021/12/30 09:55:48;;;;;;;;;;;;;;;7.54;66.80;95143.38;5114000;28;1048;-45
2021/12/30 09:58:14;;;;;;;;;;;;;;;7.48;67.21;95144.78;5114372;28;1039;-45
2021/12/30 10:00:40;;;;;;;;;;;;;;;7.47;67.31;95144.91;5113747;28;1906;-46
2021/12/30 10:03:07;;;;;;;;;;;;;;;7.48;66.83;95146.59;5114188;28;1127;-45
2021/12/30 10:05:35;;;;;;;;;;;;;;;7.42;67.27;95154.16;5114051;28;1008;-45
2021/12/30 10:08:16;;;;;;;;;;;;;;;7.50;66.97;95156.13;5114140;28;1039;-45
2021/12/30 10:10:46;;;;;;;;;;;;;;;7.58;66.50;95164.22;5114082;28;976;-45
2021/12/30 10:13:15;;;;;;;;;;;;;;;7.53;67.33;95155.84;5113795;28;1149;-45
2021/12/30 10:15:42;;;;;;;;;;;;;;;7.54;67.58;95156.69;5113337;28;1064;-45
2021/12/30 10:18:08;;;;;;;;;;;;;;;7.52;67.49;95154.16;5114027;28;1038;-45
2021/12/30 10:20:37;;;;;;;;;;;;;;;7.62;67.42;95157.63;5113536;28;1978;-45
2021/12/30 10:23:20;;;;;;;;;;;;;;;7.66;67.16;95165.34;5113996;28;1087;-46
2021/12/30 10:25:47;;;;;;;;;;;;;;;7.75;66.68;95170.63;5113542;28;1011;-45
2021/12/30 10:28:20;;;;;;;;;;;;;;;7.73;67.33;95167.28;5113686;28;1102;-45
2021/12/30 10:30:46;;;;;;;;;;;;;;;7.77;66.69;95165.16;5113731;28;976;-45
2021/12/30 10:33:15;;;;;;;;;;;;;;;7.80;66.38;95179.03;5113942;28;992;-45
2021/12/30 10:35:42;;;;;;;;;;;;;;;7.80;65.43;95184.34;5113818;28;983;-46
2021/12/30 10:38:09;;;;;;;;;;;;;;;7.76;65.64;95177.66;5114066;28;921;-45
2021/12/30 10:40:37;;;;;;;;;;;;;;;7.86;65.52;95166.97;5113745;28;1910;-45
2021/12/30 10:43:25;;;;;;;;;;;;;;;7.81;64.64;95172.72;5113615;28;1076;-44
2021/12/30 10:46:00;;;;;;;;;;;;;;;7.85;65.07;95167.94;5113730;28;972;-44
2021/12/30 10:48:26;;;;;;;;;;;;;;;7.95;65.77;95171.44;5116217;28;1279;-46
2021/12/30 10:51:11;;;;;;;;;;;;;;;8.08;65.09;95176.44;5117419;28;1858;-45
2021/12/30 10:53:38;;;;;;;;;;;;;;;7.97;64.20;95174.78;5117842;28;1042;-45
2021/12/30 10:56:20;;;;;;;;;;;;;;;7.94;64.04;95180.41;5117427;28;1003;-45
2021/12/30 10:58:47;;;;;;;;;;;;;;;7.96;63.83;95182.91;5117326;28;1159;-45
2021/12/30 11:01:14;;;;;;;;;;;;;;;7.99;63.67;95177.31;5117131;28;1894;-45
2021/12/30 11:03:42;;;;;;;;;;;;;;;8.09;63.18;95178.13;5117241;28;1043;-45
2021/12/30 11:06:10;;;;;;;;;;;;;;;8.11;63.09;95180.63;5117475;28;1020;-45
2021/12/30 11:08:36;;;;;;;;;;;;;;;7.96;63.21;95186.41;5117229;28;1016;-46
2021/12/30 11:11:21;;;;;;;;;;;;;;;7.94;63.04;95192.88;5117144;28;1160;-45
2021/12/30 11:13:56;;;;;;;;;;;;;;;7.97;63.28;95200.59;5116892;28;1369;-46
2021/12/30 11:16:22;;;;;;;;;;;;;;;7.92;63.56;95205.50;5117179;28;1006;-45
2021/12/30 11:18:48;;;;;;;;;;;;;;;7.87;63.43;95211.22;5116975;28;1016;-45
2021/12/30 11:21:33;;;;;;;;;;;;;;;7.93;63.50;95220.47;5116879;28;1997;-45
2021/12/30 11:23:59;;;;;;;;;;;;;;;7.94;63.09;95217.66;5116936;28;989;-45
2021/12/30 11:26:25;;;;;;;;;;;;;;;7.90;62.56;95218.94;5116857;28;982;-45
2021/12/30 11:28:52;;;;;;;;;;;;;;;7.91;62.33;95220.63;5116629;28;1094;-46
2021/12/30 11:31:18;;;;;;;;;;;;;;;8.00;62.29;95219.75;5117108;28;1043;-46
2021/12/30 11:33:45;;;;;;;;;;;;;;;8.00;62.43;95222.41;5116524;28;1947;-45
2021/12/30 11:36:11;;;;;;;;;;;;;;;7.82;62.79;95224.16;5117063;28;1062;-46
2021/12/30 11:38:37;;;;;;;;;;;;;;;7.87;62.40;95229.03;5116541;28;1023;-46
2021/12/30 11:41:04;;;;;;;;;;;;;;;7.92;62.76;95227.63;5116444;28;1922;-46
2021/12/30 11:43:43;;;;;;;;;;;;;;;7.86;62.66;95236.19;5116267;28;1028;-46
2021/12/30 11:46:27;;;;;;;;;;;;;;;7.85;62.78;95237.16;5116525;28;1079;-46
2021/12/30 11:48:54;;;;;;;;;;;;;;;7.86;62.79;95233.53;5116326;28;1075;-45
2021/12/30 11:51:23;;;;;;;;;;;;;;;8.01;62.09;95234.75;5116528;28;992;-45
2021/12/30 11:53:50;;;;;;;;;;;;;;;8.19;61.67;95232.22;5116079;28;1221;-44
2021/12/30 11:56:18;;;;;;;;;;;;;;;8.31;61.87;95234.66;5116580;28;1017;-45
2021/12/30 11:59:02;;;;;;;;;;;;;;;8.30;61.44;95231.16;5115737;28;1060;-45
2021/12/30 12:01:31;;;;;;;;;;;;;;;8.39;61.44;95235.63;5116398;28;976;-45
2021/12/30 12:03:58;;;;;;;;;;;;;;;8.42;61.18;95229.19;5116005;28;1028;-45
2021/12/30 12:06:24;;;;;;;;;;;;;;;8.38;61.48;95230.44;5116075;28;1071;-45
2021/12/30 12:09:02;;;;;;;;;;;;;;;8.37;60.71;95228.78;5116092;28;1054;-45
2021/12/30 12:11:31;;;;;;;;;;;;;;;8.47;60.95;95223.44;5116266;28;1224;-45
2021/12/30 12:14:14;;;;;;;;;;;;;;;8.53;60.61;95223.69;5115756;28;1377;-46
2021/12/30 12:16:47;;;;;;;;;;;;;;;8.87;59.82;95235.59;5116276;28;1043;-46
2021/12/30 12:19:14;;;;;;;;;;;;;;;8.80;59.24;95232.69;5115667;28;1996;-45
2021/12/30 12:21:43;;;;;;;;;;;;;;;8.76;59.68;95240.16;5116009;28;1036;-46
2021/12/30 12:24:31;;;;;;;;;;;;;;;8.55;60.45;95242.19;5115857;28;1056;-45
2021/12/30 12:26:59;;;;;;;;;;;;;;;8.59;60.94;95241.78;5115772;28;1020;-45
2021/12/30 12:29:27;;;;;;;;;;;;;;;8.63;60.42;95239.63;5115330;27;1024;-45
2021/12/30 12:32:03;;;;;;;;;;;;;;;8.55;60.90;95248.34;5115863;28;1043;-45
2021/12/30 12:34:37;;;;;;;;;;;;;;;8.60;60.77;95245.28;5115757;28;983;-45
2021/12/30 12:37:04;;;;;;;;;;;;;;;8.51;60.33;95249.63;5115770;28;1057;-45
2021/12/30 12:39:37;;;;;;;;;;;;;;;8.31;61.14;95254.19;5115360;28;1905;-45
2021/12/30 12:42:04;;;;;;;;;;;;;;;8.17;61.60;95260.78;5115280;28;1035;-45
2021/12/30 12:44:30;;;;;;;;;;;;;;;8.25;61.87;95253.91;5115519;28;1051;-45
2021/12/30 12:46:56;;;;;;;;;;;;;;;8.36;61.67;95249.22;5115630;28;1101;-45
2021/12/30 12:49:42;;;;;;;;;;;;;;;8.46;60.86;95256.38;5115142;28;1271;-45
2021/12/30 12:52:08;;;;;;;;;;;;;;;8.67;60.72;95259.69;5115509;28;1754;-45
2021/12/30 12:54:36;;;;;;;;;;;;;;;8.71;60.47;95249.59;5115208;28;1069;-46
2021/12/30 12:57:15;;;;;;;;;;;;;;;8.82;60.53;95254.72;5115323;28;1039;-45
2021/12/30 12:59:42;;;;;;;;;;;;;;;9.01;60.13;95245.78;5115047;28;1993;-46
2021/12/30 13:02:09;;;;;;;;;;;;;;;9.08;60.25;95243.34;5115066;28;1007;-45
2021/12/30 13:04:36;;;;;;;;;;;;;;;9.03;59.97;95261.59;5114841;28;1015;-45
2021/12/30 13:07:09;;;;;;;;;;;;;;;8.93;60.27;95257.16;5114858;27;1035;-45
2021/12/30 13:09:35;;;;;;;;;;;;;;;8.99;60.43;95255.72;5114874;27;1031;-45
2021/12/30 13:12:03;;;;;;;;;;;;;;;8.98;60.09;95262.06;5113928;28;1305;-46